createdAt,value
2017-11-11T00:01:25.039Z,7.80
2017-11-11T00:03:53.721Z,7.90
2017-11-11T00:08:52.002Z,7.80
2017-11-11T00:13:50.249Z,7.80
2017-11-11T00:16:19.343Z,7.80
2017-11-11T00:18:49.136Z,7.80
2017-11-11T00:21:17.464Z,7.90
2017-11-11T00:23:45.787Z,7.90
2017-11-11T00:26:15.573Z,7.80
2017-11-11T00:28:43.891Z,7.80
2017-11-11T00:31:12.219Z,7.70
2017-11-11T00:33:41.632Z,7.70
2017-11-11T00:36:09.963Z,7.80
2017-11-11T00:38:38.283Z,7.80
2017-11-11T00:41:06.562Z,7.80
2017-11-11T00:43:34.878Z,7.80
2017-11-11T00:46:03.967Z,7.80
2017-11-11T00:48:33.004Z,7.80
2017-11-11T00:51:02.118Z,7.80
2017-11-11T00:53:30.442Z,7.80
2017-11-11T00:55:58.740Z,7.80
2017-11-11T00:58:27.047Z,7.80
2017-11-11T01:00:56.495Z,7.80
2017-11-11T01:03:24.771Z,7.80
2017-11-11T01:05:53.085Z,7.70
2017-11-11T01:08:21.430Z,7.80
2017-11-11T01:10:49.700Z,7.80
2017-11-11T01:13:18.015Z,7.90
2017-11-11T01:15:46.335Z,8.00
2017-11-11T01:20:45.316Z,8.10
2017-11-11T01:23:14.400Z,8.00
2017-11-11T01:25:42.729Z,8.10
2017-11-11T01:28:11.475Z,8.00
2017-11-11T01:30:39.805Z,8.00
2017-11-11T01:33:08.085Z,7.90
2017-11-11T01:35:36.400Z,7.80
2017-11-11T01:38:04.699Z,7.80
2017-11-11T01:40:32.976Z,7.80
2017-11-11T01:43:03.577Z,7.80
2017-11-11T01:45:32.247Z,7.80
2017-11-11T01:48:00.542Z,7.80
2017-11-11T01:50:29.188Z,7.80
2017-11-11T01:52:57.482Z,7.70
2017-11-11T01:55:25.756Z,7.70
2017-11-11T01:57:54.087Z,7.70
2017-11-11T02:02:51.883Z,7.70
2017-11-11T02:05:20.213Z,7.70
2017-11-11T02:07:48.479Z,7.80
2017-11-11T02:10:17.530Z,7.80
2017-11-11T02:12:47.011Z,7.80
2017-11-11T02:17:46.323Z,7.70
2017-11-11T02:20:14.642Z,7.80
2017-11-11T02:22:44.082Z,7.90
2017-11-11T02:25:12.383Z,8.00
2017-11-11T02:27:40.718Z,8.10
2017-11-11T02:30:09.007Z,8.10
2017-11-11T02:32:37.300Z,8.10
2017-11-11T02:40:05.423Z,8.10
2017-11-11T02:42:34.147Z,8.10
2017-11-11T02:45:03.201Z,8.10
2017-11-11T02:47:32.232Z,8.00
2017-11-11T02:50:00.586Z,8.00
2017-11-11T02:52:29.276Z,7.90
2017-11-11T02:54:57.547Z,8.10
2017-11-11T02:57:25.865Z,8.10
2017-11-11T02:59:54.135Z,8.10
2017-11-11T03:02:22.416Z,8.10
2017-11-11T03:07:20.238Z,8.20
2017-11-11T03:09:49.286Z,8.20
2017-11-11T03:12:18.414Z,8.10
2017-11-11T03:14:46.703Z,8.10
2017-11-11T03:17:14.994Z,8.00
2017-11-11T03:22:13.276Z,8.00
2017-11-11T03:24:41.579Z,8.00
2017-11-11T03:27:09.920Z,8.00
2017-11-11T03:29:38.210Z,7.90
2017-11-11T03:32:07.278Z,8.00
2017-11-11T03:34:36.389Z,8.00
2017-11-11T03:37:05.428Z,7.90
2017-11-11T03:42:03.673Z,7.80
2017-11-11T03:44:32.731Z,7.80
2017-11-11T03:47:01.788Z,7.90
2017-11-11T03:49:30.128Z,7.80
2017-11-11T03:51:58.404Z,7.80
2017-11-11T03:54:26.678Z,7.70
2017-11-11T03:59:24.904Z,7.70
2017-11-11T04:01:53.178Z,7.60
2017-11-11T04:06:51.563Z,7.50
2017-11-11T04:09:19.836Z,7.60
2017-11-11T04:11:48.932Z,7.60
2017-11-11T04:15:34.418Z,7.70
2017-11-11T04:18:03.155Z,7.80
2017-11-11T04:20:31.423Z,7.80
2017-11-11T04:22:59.720Z,7.90
2017-11-11T04:25:28.033Z,7.90
2017-11-11T04:27:56.308Z,7.80
2017-11-11T04:32:54.588Z,7.90
2017-11-11T04:35:22.854Z,7.90
2017-11-11T04:37:52.291Z,7.90
2017-11-11T04:40:21.391Z,7.90
2017-11-11T04:42:49.665Z,8.00
2017-11-11T04:45:19.073Z,8.00
2017-11-11T04:47:47.390Z,8.00
2017-11-11T04:50:16.792Z,8.10
2017-11-11T04:52:45.079Z,8.10
2017-11-11T04:55:14.947Z,8.00
2017-11-11T04:57:43.222Z,8.00
2017-11-11T05:02:41.964Z,7.90
2017-11-11T05:05:11.391Z,8.00
2017-11-11T05:07:39.668Z,8.10
2017-11-11T05:10:08.052Z,8.10
2017-11-11T05:12:36.335Z,8.10
2017-11-11T05:15:04.614Z,8.20
2017-11-11T05:17:32.947Z,8.20
2017-11-11T05:20:01.235Z,8.10
2017-11-11T05:24:59.082Z,8.00
2017-11-11T05:27:28.890Z,8.10
2017-11-11T05:29:57.175Z,8.20
2017-11-11T05:32:25.492Z,8.10
2017-11-11T05:34:53.767Z,8.10
2017-11-11T05:37:22.067Z,8.20
2017-11-11T05:39:51.542Z,8.10
2017-11-11T05:42:21.328Z,8.20
2017-11-11T05:44:49.598Z,8.20
2017-11-11T05:47:19.444Z,8.30
2017-11-11T05:49:49.246Z,8.30
2017-11-11T05:52:17.514Z,8.30
2017-11-11T05:54:46.247Z,8.20
2017-11-11T05:59:44.031Z,8.30
2017-11-11T06:02:14.099Z,8.30
2017-11-11T06:04:43.138Z,8.40
2017-11-11T06:07:12.566Z,8.40
2017-11-11T06:09:41.310Z,8.50
2017-11-11T06:12:09.574Z,8.40
2017-11-11T06:14:38.620Z,8.50
2017-11-11T06:17:07.723Z,8.50
2017-11-11T06:19:36.767Z,8.50
2017-11-11T06:22:05.039Z,8.50
2017-11-11T06:24:33.383Z,8.60
2017-11-11T06:27:01.664Z,8.60
2017-11-11T06:29:29.943Z,8.50
2017-11-11T06:31:58.274Z,8.50
2017-11-11T06:34:27.343Z,8.60
2017-11-11T06:36:56.387Z,8.60
2017-11-11T06:39:24.718Z,8.70
2017-11-11T06:41:53.763Z,8.70
2017-11-11T06:44:22.812Z,8.70
2017-11-11T06:46:51.143Z,8.60
2017-11-11T06:51:48.924Z,8.60
2017-11-11T06:54:17.248Z,8.60
2017-11-11T06:56:45.517Z,8.60
2017-11-11T06:59:13.813Z,8.60
2017-11-11T07:01:42.554Z,8.50
2017-11-11T07:09:09.995Z,8.60
2017-11-11T07:11:39.071Z,8.50
2017-11-11T07:16:37.313Z,8.60
2017-11-11T07:19:06.351Z,8.50
2017-11-11T07:21:34.653Z,8.60
2017-11-11T07:24:03.751Z,8.50
2017-11-11T07:26:32.046Z,8.60
2017-11-11T07:36:28.956Z,8.60
2017-11-11T07:38:58.437Z,8.50
2017-11-11T07:41:27.700Z,8.50
2017-11-11T07:43:56.374Z,8.60
2017-11-11T07:46:24.684Z,8.60
2017-11-11T07:48:52.956Z,8.70
2017-11-11T07:51:21.236Z,8.70
2017-11-11T07:56:19.091Z,8.70
2017-11-11T07:58:47.398Z,8.80
2017-11-11T08:01:15.777Z,8.70
2017-11-11T08:03:44.075Z,8.70
2017-11-11T08:06:13.900Z,8.80
2017-11-11T08:08:42.633Z,8.70
2017-11-11T08:11:10.912Z,8.60
2017-11-11T08:16:08.792Z,8.60
2017-11-11T08:18:38.223Z,8.70
2017-11-11T08:21:07.269Z,8.70
2017-11-11T08:23:36.446Z,8.80
2017-11-11T08:26:04.723Z,8.90
2017-11-11T08:28:33.067Z,8.80
2017-11-11T08:31:02.536Z,8.90
2017-11-11T08:33:31.949Z,8.80
2017-11-11T08:38:31.310Z,8.80
2017-11-11T08:40:59.587Z,8.70
2017-11-11T08:43:27.860Z,8.80
2017-11-11T08:45:56.192Z,8.80
2017-11-11T08:48:24.500Z,8.80
2017-11-11T08:50:53.918Z,8.90
2017-11-11T08:53:22.295Z,8.90
2017-11-11T08:58:21.596Z,8.80
2017-11-11T09:00:49.925Z,8.90
2017-11-11T09:03:18.198Z,8.80
2017-11-11T09:05:47.350Z,8.80
2017-11-11T09:08:16.426Z,8.90
2017-11-11T09:10:44.691Z,8.90
2017-11-11T09:13:12.956Z,8.90
2017-11-11T09:15:42.788Z,9.00
2017-11-11T09:18:11.456Z,9.10
2017-11-11T09:20:39.724Z,9.10
2017-11-11T09:23:08.045Z,9.00
2017-11-11T09:25:37.083Z,8.90
2017-11-11T09:28:05.364Z,8.90
2017-11-11T09:30:33.708Z,9.00
2017-11-11T09:33:01.981Z,9.00
2017-11-11T09:35:30.254Z,9.10
2017-11-11T09:37:58.577Z,9.00
2017-11-11T09:40:26.852Z,9.10
2017-11-11T09:42:56.635Z,9.10
2017-11-11T09:47:56.211Z,9.10
2017-11-11T09:50:24.492Z,9.20
2017-11-11T09:52:54.334Z,9.30
2017-11-11T09:55:22.616Z,9.20
2017-11-11T09:57:50.884Z,9.10
2017-11-11T10:00:19.200Z,9.20
2017-11-11T10:02:48.639Z,9.30
2017-11-11T10:05:16.908Z,9.20
2017-11-11T10:10:16.268Z,9.20
2017-11-11T10:17:44.009Z,9.10
2017-11-11T10:20:12.341Z,9.20
2017-11-11T10:25:11.648Z,9.10
2017-11-11T10:27:39.988Z,9.20
2017-11-11T10:30:08.264Z,9.20
2017-11-11T10:32:36.566Z,9.20
2017-11-11T10:35:06.410Z,9.20
2017-11-11T10:37:34.678Z,9.20
2017-11-11T10:40:04.470Z,9.30
2017-11-11T10:42:32.823Z,9.20
2017-11-11T10:45:01.503Z,9.20
2017-11-11T10:47:29.820Z,9.20
2017-11-11T10:49:58.136Z,9.10
2017-11-11T10:52:27.911Z,9.00
2017-11-11T10:54:56.186Z,9.00
2017-11-11T10:59:54.030Z,9.00
2017-11-11T11:04:52.658Z,9.00
2017-11-11T11:07:21.701Z,9.10
2017-11-11T11:12:19.952Z,9.20
2017-11-11T11:14:48.247Z,9.20
2017-11-11T11:17:16.539Z,9.20
2017-11-11T11:19:46.389Z,9.30
2017-11-11T11:22:16.185Z,9.10
2017-11-11T11:24:44.482Z,9.20
2017-11-11T11:27:12.835Z,9.30
2017-11-11T11:29:41.876Z,9.30
2017-11-11T11:32:11.283Z,9.30
2017-11-11T11:34:39.614Z,9.30
2017-11-11T11:37:07.884Z,9.40
2017-11-11T11:39:36.160Z,9.50
2017-11-11T11:42:04.490Z,9.40
2017-11-11T11:44:33.531Z,9.40
2017-11-11T11:47:02.570Z,9.40
2017-11-11T11:52:01.536Z,9.40
2017-11-11T11:54:29.800Z,9.40
2017-11-11T11:56:58.117Z,9.40
2017-11-11T11:59:26.387Z,9.40
2017-11-11T12:01:56.188Z,9.40
2017-11-11T12:04:24.519Z,9.50
2017-11-11T12:06:54.295Z,9.50
2017-11-11T12:09:23.715Z,9.40
2017-11-11T12:11:52.800Z,9.50
2017-11-11T12:14:21.482Z,9.40
2017-11-11T12:16:49.786Z,9.30
2017-11-11T12:26:47.484Z,9.20
2017-11-11T12:29:16.533Z,9.20
2017-11-11T12:31:45.613Z,9.20
2017-11-11T12:34:13.949Z,9.20
2017-11-11T12:36:42.219Z,9.20
2017-11-11T12:39:11.999Z,9.20
2017-11-11T12:41:40.330Z,9.20
2017-11-11T12:44:08.624Z,9.20
2017-11-11T12:46:38.031Z,9.20
2017-11-11T12:49:06.348Z,9.20
2017-11-11T12:54:04.566Z,9.30
2017-11-11T12:56:32.922Z,9.30
2017-11-11T12:59:01.594Z,9.20
2017-11-11T13:01:29.870Z,9.20
2017-11-11T13:03:58.212Z,9.20
2017-11-11T13:06:27.627Z,9.30
2017-11-11T13:08:56.306Z,9.30
2017-11-11T13:11:27.129Z,9.30
2017-11-11T13:13:55.412Z,9.30
2017-11-11T13:16:24.838Z,9.30
2017-11-11T13:18:53.951Z,9.50
2017-11-11T13:21:22.223Z,9.50
2017-11-11T13:23:50.516Z,9.60
2017-11-11T13:26:18.880Z,9.70
2017-11-11T13:28:48.297Z,9.70
2017-11-11T13:31:17.801Z,9.70
2017-11-11T13:33:47.252Z,9.80
2017-11-11T13:36:16.684Z,9.70
2017-11-11T13:43:45.408Z,9.80
2017-11-11T13:46:13.699Z,9.70
2017-11-11T13:48:43.177Z,9.70
2017-11-11T13:51:11.851Z,9.70
2017-11-11T13:56:10.480Z,9.70
2017-11-11T13:58:39.171Z,9.60
2017-11-11T14:06:07.669Z,9.70
2017-11-11T14:11:06.301Z,9.70
2017-11-11T14:13:34.590Z,9.70
2017-11-11T14:16:02.873Z,9.70
2017-11-11T14:18:31.230Z,9.80
2017-11-11T14:20:59.511Z,9.70
2017-11-11T14:23:28.927Z,9.70
2017-11-11T14:25:57.540Z,9.70
2017-11-11T14:28:25.810Z,9.70
2017-11-11T14:30:54.858Z,9.70
2017-11-11T14:33:24.187Z,9.70
2017-11-11T14:35:52.863Z,9.80
2017-11-11T14:38:21.143Z,9.90
2017-11-11T14:43:21.203Z,9.90
2017-11-11T14:48:20.450Z,9.90
2017-11-11T14:50:48.751Z,9.90
2017-11-11T14:53:17.787Z,9.90
2017-11-11T14:55:46.512Z,9.90
2017-11-11T14:58:14.816Z,9.80
2017-11-11T15:00:43.111Z,9.80
2017-11-11T15:03:11.456Z,9.80
2017-11-11T15:05:41.243Z,9.70
2017-11-11T15:08:09.556Z,9.80
2017-11-11T15:10:37.948Z,9.70
2017-11-11T15:13:06.626Z,9.70
2017-11-11T15:15:34.918Z,9.70
2017-11-11T15:23:03.054Z,9.70
2017-11-11T15:25:32.023Z,9.70
2017-11-11T15:28:01.820Z,9.70
2017-11-11T15:30:30.106Z,9.70
2017-11-11T15:32:58.820Z,9.70
2017-11-11T15:35:27.859Z,9.70
2017-11-11T15:37:56.144Z,9.80
2017-11-11T15:40:24.466Z,9.80
2017-11-11T15:42:52.872Z,9.70
2017-11-11T15:45:21.163Z,9.70
2017-11-11T15:47:53.420Z,9.70
2017-11-11T15:50:23.208Z,9.60
2017-11-11T15:52:51.508Z,9.70
2017-11-11T15:55:21.348Z,9.60
2017-11-11T15:57:49.624Z,9.60
2017-11-11T16:00:17.926Z,9.50
2017-11-11T16:02:47.123Z,9.50
2017-11-11T16:05:17.022Z,9.60
2017-11-11T16:12:45.529Z,9.70
2017-11-11T16:15:13.802Z,9.70
2017-11-11T16:17:42.975Z,9.60
2017-11-11T16:20:12.030Z,9.60
2017-11-11T16:22:40.304Z,9.70
2017-11-11T16:25:08.630Z,9.70
2017-11-11T16:27:36.899Z,9.80
2017-11-11T16:30:05.194Z,9.80
2017-11-11T16:32:33.550Z,9.90
2017-11-11T16:35:02.597Z,9.80
2017-11-11T16:37:31.279Z,9.70
2017-11-11T16:39:59.707Z,9.60
2017-11-11T16:42:28.760Z,9.60
2017-11-11T16:44:57.065Z,9.60
2017-11-11T16:47:26.923Z,9.60
2017-11-11T16:49:55.205Z,9.60
2017-11-11T16:52:23.501Z,9.50
2017-11-11T16:54:51.847Z,9.50
2017-11-11T16:57:20.139Z,9.50
2017-11-11T16:59:48.471Z,9.50
2017-11-11T17:02:16.787Z,9.40
2017-11-11T17:12:14.867Z,9.10
2017-11-11T17:14:43.145Z,9.20
2017-11-11T17:17:11.468Z,9.20
2017-11-11T17:19:40.542Z,9.20
2017-11-11T17:22:09.606Z,9.20
2017-11-11T17:24:39.145Z,9.20
2017-11-11T17:27:08.567Z,9.20
2017-11-11T17:29:36.846Z,9.20
2017-11-11T17:32:05.192Z,9.20
2017-11-11T17:34:33.468Z,9.20
2017-11-11T17:37:01.759Z,9.20
2017-11-11T17:39:30.376Z,9.20
2017-11-11T17:41:59.426Z,9.20
2017-11-11T17:44:27.759Z,9.20
2017-11-11T17:46:56.495Z,9.20
2017-11-11T17:49:24.779Z,9.20
2017-11-11T17:51:53.118Z,9.20
2017-11-11T17:54:22.590Z,9.20
2017-11-11T17:56:51.644Z,9.20
2017-11-11T17:59:20.393Z,9.20
2017-11-11T18:01:50.184Z,9.10
2017-11-11T18:04:18.463Z,9.10
2017-11-11T18:09:16.341Z,9.10
2017-11-11T18:14:14.726Z,9.10
2017-11-11T18:16:43.019Z,9.10
2017-11-11T18:19:11.305Z,9.10
2017-11-11T18:21:39.635Z,9.00
2017-11-11T18:24:07.911Z,9.00
2017-11-11T18:26:36.203Z,9.00
2017-11-11T18:29:08.194Z,9.00
2017-11-11T18:31:36.466Z,9.00
2017-11-11T18:34:04.749Z,9.00
2017-11-11T18:36:33.867Z,9.00
2017-11-11T18:39:02.919Z,8.90
2017-11-11T18:41:31.981Z,8.80
2017-11-11T18:44:00.339Z,8.80
2017-11-11T18:46:28.617Z,8.70
2017-11-11T18:48:58.408Z,8.70
2017-11-11T18:51:26.767Z,8.70
2017-11-11T18:53:55.064Z,8.70
2017-11-11T18:56:24.857Z,8.70
2017-11-11T18:58:53.563Z,8.60
2017-11-11T19:01:21.843Z,8.60
2017-11-11T19:03:50.123Z,8.60
2017-11-11T19:06:19.232Z,8.50
2017-11-11T19:08:48.279Z,8.50
2017-11-11T19:11:16.574Z,8.50
2017-11-11T19:13:46.427Z,8.40
2017-11-11T19:16:14.706Z,8.40
2017-11-11T19:21:14.083Z,8.40
2017-11-11T19:23:42.755Z,8.30
2017-11-11T19:26:11.432Z,8.30
2017-11-11T19:31:10.422Z,8.40
2017-11-11T19:33:38.703Z,8.40
2017-11-11T19:36:07.043Z,8.40
2017-11-11T19:38:36.459Z,8.40
2017-11-11T19:41:04.735Z,8.50
2017-11-11T19:43:33.071Z,8.50
2017-11-11T19:46:01.348Z,8.50
2017-11-11T19:48:29.648Z,8.50
2017-11-11T19:50:57.980Z,8.50
2017-11-11T19:53:26.265Z,8.50
2017-11-11T19:55:54.569Z,8.40
2017-11-11T19:58:24.037Z,8.40
2017-11-11T20:00:52.316Z,8.40
2017-11-11T20:03:21.734Z,8.50
2017-11-11T20:05:50.095Z,8.50
2017-11-11T20:08:19.148Z,8.50
2017-11-11T20:13:16.986Z,8.50
2017-11-11T20:15:46.418Z,8.50
2017-11-11T20:18:14.699Z,8.50
2017-11-11T20:20:43.055Z,8.50
2017-11-11T20:23:12.870Z,8.50
2017-11-11T20:25:41.172Z,8.50
2017-11-11T20:28:09.550Z,8.50
2017-11-11T20:30:37.836Z,8.50
2017-11-11T20:33:06.147Z,8.40
2017-11-11T20:35:34.479Z,8.50
2017-11-11T20:38:03.899Z,8.60
2017-11-11T20:40:32.187Z,8.50
2017-11-11T20:43:00.511Z,8.50
2017-11-11T20:45:28.811Z,8.50
2017-11-11T20:50:27.048Z,8.50
2017-11-11T20:52:56.479Z,8.40
2017-11-11T20:55:26.272Z,8.40
2017-11-11T20:57:55.187Z,8.40
2017-11-11T21:00:24.253Z,8.30
2017-11-11T21:02:52.538Z,8.30
2017-11-11T21:05:21.283Z,8.30
2017-11-11T21:07:49.577Z,8.30
2017-11-11T21:10:17.864Z,8.30
2017-11-11T21:12:48.198Z,8.30
2017-11-11T21:15:17.247Z,8.30
2017-11-11T21:17:46.315Z,8.20
2017-11-11T21:22:44.206Z,8.10
2017-11-11T21:25:12.500Z,8.10
2017-11-11T21:27:41.596Z,8.10
2017-11-11T21:30:09.866Z,8.10
2017-11-11T21:32:38.210Z,8.10
2017-11-11T21:35:08.051Z,8.00
2017-11-11T21:40:06.645Z,8.00
2017-11-11T21:42:34.977Z,8.00
2017-11-11T21:45:04.400Z,8.00
2017-11-11T21:47:32.688Z,8.10
2017-11-11T21:50:01.447Z,8.10
2017-11-11T21:52:31.256Z,8.10
2017-11-11T21:54:59.543Z,8.00
2017-11-11T21:57:27.867Z,8.00
2017-11-11T21:59:57.308Z,7.90
2017-11-11T22:02:26.370Z,8.00
2017-11-11T22:04:56.543Z,7.90
2017-11-11T22:07:25.232Z,7.90
2017-11-11T22:09:53.507Z,7.80
2017-11-11T22:12:22.624Z,7.80
2017-11-11T22:14:51.671Z,7.80
2017-11-11T22:17:19.964Z,7.80
2017-11-11T22:19:48.295Z,7.70
2017-11-11T22:22:16.576Z,7.60
2017-11-11T22:24:44.857Z,7.60
2017-11-11T22:27:14.959Z,7.60
2017-11-11T22:29:43.276Z,7.50
2017-11-11T22:32:11.556Z,7.50
2017-11-11T22:34:41.420Z,7.60
2017-11-11T22:37:09.744Z,7.60
2017-11-11T22:39:39.159Z,7.60
2017-11-11T22:42:08.509Z,7.50
2017-11-11T22:44:36.799Z,7.50
2017-11-11T22:47:06.224Z,7.50
2017-11-11T22:52:04.486Z,7.50
2017-11-11T22:54:33.574Z,7.40
2017-11-11T22:57:01.940Z,7.40
2017-11-11T22:59:31.731Z,7.30
2017-11-11T23:04:29.996Z,7.20
2017-11-11T23:06:58.279Z,7.20
2017-11-11T23:09:27.325Z,7.20
2017-11-11T23:11:56.896Z,7.20
2017-11-11T23:14:25.172Z,7.20
2017-11-11T23:16:53.450Z,7.20
2017-11-11T23:19:21.771Z,7.20
2017-11-11T23:21:51.214Z,7.20
2017-11-11T23:24:19.496Z,7.10
2017-11-11T23:26:47.823Z,7.10
2017-11-11T23:29:16.870Z,7.10
2017-11-11T23:31:45.176Z,7.10
2017-11-11T23:34:13.514Z,7.10
2017-11-11T23:36:42.560Z,7.20
2017-11-11T23:39:11.246Z,7.30
2017-11-11T23:41:40.518Z,7.20
2017-11-11T23:44:10.331Z,7.10
2017-11-11T23:49:08.200Z,7.20
2017-11-11T23:51:36.480Z,7.20
2017-11-11T23:54:04.764Z,7.30
2017-11-11T23:56:33.479Z,7.30
2017-11-11T23:59:02.526Z,7.30
